Shokyu Maru — JG5288 — position and weather

sailwx.info

Track history (hours):
 
Tides and Currents Weather Stations Pressure Air Temp Water Temp Dewpoint Dewpoint Depression Visibility Wind Speed Wind Dir Waves Ship Positions

Shokyu Maru

Last reported at 2014-Nov-26 07:17 UTC. Time now 2014-Nov-27 01:45 UTC.
Position N 35°34' E 139°56'.

Length 91 m; draft 4.3 m.

Type: Tanker. MMSI: 431000253.

Date/timePositionNaut miles runAvg speedWind from/ knotsBaromVisibWave heightAir tempDewpointWater temp
2014-Nov-26 07:17N 35°34' E 139°56'1 0.4
2014-Nov-26 05:09N 35°34' E 139°55'6 9.4
2014-Nov-26 04:33N 35°39' E 139°58'2 0.5
2014-Nov-25 23:23N 35°37' E 139°57'3 0.2
2014-Nov-25 10:11N 35°35' E 139°54'4 7.2
2014-Nov-25 09:33N 35°32' E 139°51'5 4.6
2014-Nov-25 08:33N 35°30' E 139°45'0 0.0
2014-Nov-25 07:33N 35°30' E 139°45'0 0.0
2014-Nov-25 06:33N 35°30' E 139°45'0 0.0
2014-Nov-25 05:33N 35°30' E 139°45'1 1.1
2014-Nov-25 04:33N 35°30' E 139°44'3 3.4
2014-Nov-25 03:33N 35°28' E 139°48'10 9.9
2014-Nov-25 02:33N 35°35' E 139°56'3 0.6
2014-Nov-24 21:25N 35°38' E 139°58'4 3.8
2014-Nov-24 20:28N 35°36' E 139°55'0 0.0
2014-Nov-24 19:31N 35°35' E 139°55'0 0.0
2014-Nov-24 18:31N 35°36' E 139°55'0 0.0
2014-Nov-24 16:28N 35°36' E 139°55'0 0.0
2014-Nov-24 14:31N 35°35' E 139°55'1 0.4
2014-Nov-24 12:32N 35°35' E 139°56'7 7.2
2014-Nov-24 11:33N 35°31' E 140°03'0 0.0
2014-Nov-24 10:33N 35°31' E 140°03'0 0.0
2014-Nov-24 09:33N 35°31' E 140°03'0 0.0
2014-Nov-24 08:33N 35°31' E 140°03'0 0.0
2014-Nov-24 07:33N 35°31' E 140°03'5 4.7
2014-Nov-24 06:31N 35°34' E 139°58'2 0.6
2014-Nov-24 02:32N 35°35' E 139°55'4 0.8
2014-Nov-23 21:22N 35°38' E 139°58'3 0.6
2014-Nov-23 15:30N 35°36' E 139°55'0 0.0
2014-Nov-23 13:24N 35°36' E 139°55'0 0.0
2014-Nov-23 12:18N 35°36' E 139°55'0 0.0
2014-Nov-23 09:12N 35°36' E 139°55'0 0.0
2014-Nov-23 08:24N 35°36' E 139°55'4 4.8
2014-Nov-23 07:33N 35°32' E 139°52'6 5.8
2014-Nov-23 06:33N 35°30' E 139°45'0 0.0
2014-Nov-23 05:33N 35°30' E 139°45'0 0.0
2014-Nov-23 04:33N 35°30' E 139°45'0 0.0
2014-Nov-23 03:31N 35°30' E 139°45'1 0.6
2014-Nov-23 02:33N 35°30' E 139°44'3 3.2
2014-Nov-23 01:33N 35°27' E 139°44'4 3.9
2014-Nov-23 00:31N 35°29' E 139°39'0 0.0
2014-Nov-22 23:31N 35°29' E 139°39'0 0.0
2014-Nov-22 22:31N 35°29' E 139°39'0 0.0
2014-Nov-22 21:28N 35°29' E 139°39'0 0.0
2014-Nov-22 20:31N 35°29' E 139°39'0 0.0
2014-Nov-22 19:31N 35°29' E 139°39'0 0.0
2014-Nov-22 18:31N 35°29' E 139°39'0 0.0
2014-Nov-22 17:25N 35°29' E 139°39'0 0.0
2014-Nov-22 16:31N 35°29' E 139°39'0 0.1
2014-Nov-22 15:31N 35°29' E 139°39'0 0.0
2014-Nov-22 14:31N 35°29' E 139°39'0 0.0
2014-Nov-22 13:31N 35°29' E 139°39'0 0.0
2014-Nov-22 12:31N 35°29' E 139°39'0 0.0
2014-Nov-22 11:31N 35°29' E 139°39'0 0.0
2014-Nov-22 10:31N 35°29' E 139°39'0 0.0
2014-Nov-22 09:31N 35°29' E 139°39'0 0.0
2014-Nov-22 08:31N 35°29' E 139°39'0 0.0
2014-Nov-22 07:31N 35°29' E 139°39'1 0.6
2014-Nov-22 06:33N 35°28' E 139°40'9 8.5
2014-Nov-22 05:33N 35°30' E 139°50'1110.6
2014-Nov-22 04:30N 35°39' E 139°58'2 0.5
2014-Nov-22 00:21N 35°40' E 139°57'6 0.9
2014-Nov-21 18:31N 35°35' E 139°55'0 0.1
2014-Nov-21 17:31N 35°35' E 139°55'0 0.0
2014-Nov-21 16:25N 35°35' E 139°55'0 0.0
2014-Nov-21 15:25N 35°35' E 139°55'0 0.0
2014-Nov-21 14:10N 35°35' E 139°55'0 0.0
2014-Nov-21 13:04N 35°35' E 139°55'0 0.1
2014-Nov-21 12:14N 35°35' E 139°55'6 9.0
2014-Nov-21 11:34N 35°31' E 139°49'3 2.7
2014-Nov-21 10:32N 35°31' E 139°46'0 0.0
2014-Nov-21 09:32N 35°31' E 139°46'0 0.0
2014-Nov-21 08:32N 35°31' E 139°46'0 0.0
2014-Nov-21 07:23N 35°31' E 139°46'0 0.0
2014-Nov-21 06:32N 35°31' E 139°46'4 4.5
2014-Nov-21 05:33N 35°28' E 139°42'9 9.3
2014-Nov-21 04:33N 35°32' E 139°53'3 2.6
2014-Nov-21 03:25N 35°34' E 139°55'5 0.8
2014-Nov-20 21:28N 35°38' E 139°58'4 0.6
2014-Nov-20 15:21N 35°36' E 139°55'7 8.4
2014-Nov-20 14:33N 35°30' E 139°60'2 0.2
2014-Nov-20 06:28N 35°29' E 140°01'9 2.4
2014-Nov-20 02:33N 35°38' E 139°59'4 0.4
2014-Nov-19 15:11N 35°36' E 139°54'0 0.0
2014-Nov-19 14:29N 35°36' E 139°54'0 0.1
2014-Nov-19 13:29N 35°36' E 139°54'0 0.0
2014-Nov-19 12:23N 35°36' E 139°54'0 0.1
2014-Nov-19 11:33N 35°36' E 139°54'8 8.5
2014-Nov-19 10:33N 35°31' E 139°46'1 0.5
2014-Nov-19 09:29N 35°31' E 139°46'0 0.0
2014-Nov-19 08:32N 35°31' E 139°46'0 0.0
2014-Nov-19 06:32N 35°31' E 139°46'0 0.0
2014-Nov-19 05:26N 35°31' E 139°46'1 0.7
2014-Nov-19 04:33N 35°31' E 139°46'3 2.9
2014-Nov-19 03:33N 35°28' E 139°47'14 2.3
2014-Nov-18 21:27N 35°38' E 139°58'4 0.3
2014-Nov-18 09:05N 35°35' E 139°55'5 8.9
2014-Nov-18 08:31N 35°31' E 139°59'3 0.5
2014-Nov-18 03:09N 35°29' E 140°01'810.4
2014-Nov-18 02:22N 35°37' E 139°59'1 0.2
2014-Nov-17 21:27N 35°38' E 139°58'4 0.5
2014-Nov-17 13:33N 35°35' E 139°55'0 0.0
2014-Nov-17 08:30N 35°35' E 139°55'0 0.0
2014-Nov-17 07:18N 35°35' E 139°55'7 8.4
2014-Nov-17 06:32N 35°30' E 140°01'  
Track history (hours):
 
Tides and Currents Weather Stations Pressure Air Temp Water Temp Dewpoint Dewpoint Depression Visibility Wind Speed Wind Dir Waves Ship Positions

Shokyu Maru

Last reported at 2014-Nov-26 07:17 UTC. Time now 2014-Nov-27 01:45 UTC.
Position N 35°34' E 139°56'.

Length 91 m; draft 4.3 m.

Type: Tanker. MMSI: 431000253.

Date/timePositionNaut miles runAvg speedWind from/ knotsBaromVisibWave heightAir tempDewpointWater temp
2014-Nov-26 07:17N 35°34' E 139°56'1 0.4
2014-Nov-26 05:09N 35°34' E 139°55'6 9.4
2014-Nov-26 04:33N 35°39' E 139°58'2 0.5
2014-Nov-25 23:23N 35°37' E 139°57'3 0.2
2014-Nov-25 10:11N 35°35' E 139°54'4 7.2
2014-Nov-25 09:33N 35°32' E 139°51'5 4.6
2014-Nov-25 08:33N 35°30' E 139°45'0 0.0
2014-Nov-25 07:33N 35°30' E 139°45'0 0.0
2014-Nov-25 06:33N 35°30' E 139°45'0 0.0
2014-Nov-25 05:33N 35°30' E 139°45'1 1.1
2014-Nov-25 04:33N 35°30' E 139°44'3 3.4
2014-Nov-25 03:33N 35°28' E 139°48'10 9.9
2014-Nov-25 02:33N 35°35' E 139°56'3 0.6
2014-Nov-24 21:25N 35°38' E 139°58'4 3.8
2014-Nov-24 20:28N 35°36' E 139°55'0 0.0
2014-Nov-24 19:31N 35°35' E 139°55'0 0.0
2014-Nov-24 18:31N 35°36' E 139°55'0 0.0
2014-Nov-24 16:28N 35°36' E 139°55'0 0.0
2014-Nov-24 14:31N 35°35' E 139°55'1 0.4
2014-Nov-24 12:32N 35°35' E 139°56'7 7.2
2014-Nov-24 11:33N 35°31' E 140°03'0 0.0
2014-Nov-24 10:33N 35°31' E 140°03'0 0.0
2014-Nov-24 09:33N 35°31' E 140°03'0 0.0
2014-Nov-24 08:33N 35°31' E 140°03'0 0.0
2014-Nov-24 07:33N 35°31' E 140°03'5 4.7
2014-Nov-24 06:31N 35°34' E 139°58'2 0.6
2014-Nov-24 02:32N 35°35' E 139°55'4 0.8
2014-Nov-23 21:22N 35°38' E 139°58'3 0.6
2014-Nov-23 15:30N 35°36' E 139°55'0 0.0
2014-Nov-23 13:24N 35°36' E 139°55'0 0.0
2014-Nov-23 12:18N 35°36' E 139°55'0 0.0
2014-Nov-23 09:12N 35°36' E 139°55'0 0.0
2014-Nov-23 08:24N 35°36' E 139°55'4 4.8
2014-Nov-23 07:33N 35°32' E 139°52'6 5.8
2014-Nov-23 06:33N 35°30' E 139°45'0 0.0
2014-Nov-23 05:33N 35°30' E 139°45'0 0.0
2014-Nov-23 04:33N 35°30' E 139°45'0 0.0
2014-Nov-23 03:31N 35°30' E 139°45'1 0.6
2014-Nov-23 02:33N 35°30' E 139°44'3 3.2
2014-Nov-23 01:33N 35°27' E 139°44'4 3.9
2014-Nov-23 00:31N 35°29' E 139°39'0 0.0
2014-Nov-22 23:31N 35°29' E 139°39'0 0.0
2014-Nov-22 22:31N 35°29' E 139°39'0 0.0
2014-Nov-22 21:28N 35°29' E 139°39'0 0.0
2014-Nov-22 20:31N 35°29' E 139°39'0 0.0
2014-Nov-22 19:31N 35°29' E 139°39'0 0.0
2014-Nov-22 18:31N 35°29' E 139°39'0 0.0
2014-Nov-22 17:25N 35°29' E 139°39'0 0.0
2014-Nov-22 16:31N 35°29' E 139°39'0 0.1
2014-Nov-22 15:31N 35°29' E 139°39'0 0.0
2014-Nov-22 14:31N 35°29' E 139°39'0 0.0
2014-Nov-22 13:31N 35°29' E 139°39'0 0.0
2014-Nov-22 12:31N 35°29' E 139°39'0 0.0
2014-Nov-22 11:31N 35°29' E 139°39'0 0.0
2014-Nov-22 10:31N 35°29' E 139°39'0 0.0
2014-Nov-22 09:31N 35°29' E 139°39'0 0.0
2014-Nov-22 08:31N 35°29' E 139°39'0 0.0
2014-Nov-22 07:31N 35°29' E 139°39'1 0.6
2014-Nov-22 06:33N 35°28' E 139°40'9 8.5
2014-Nov-22 05:33N 35°30' E 139°50'1110.6
2014-Nov-22 04:30N 35°39' E 139°58'2 0.5
2014-Nov-22 00:21N 35°40' E 139°57'6 0.9
2014-Nov-21 18:31N 35°35' E 139°55'0 0.1
2014-Nov-21 17:31N 35°35' E 139°55'0 0.0
2014-Nov-21 16:25N 35°35' E 139°55'0 0.0
2014-Nov-21 15:25N 35°35' E 139°55'0 0.0
2014-Nov-21 14:10N 35°35' E 139°55'0 0.0
2014-Nov-21 13:04N 35°35' E 139°55'0 0.1
2014-Nov-21 12:14N 35°35' E 139°55'6 9.0
2014-Nov-21 11:34N 35°31' E 139°49'3 2.7
2014-Nov-21 10:32N 35°31' E 139°46'0 0.0
2014-Nov-21 09:32N 35°31' E 139°46'0 0.0
2014-Nov-21 08:32N 35°31' E 139°46'0 0.0
2014-Nov-21 07:23N 35°31' E 139°46'0 0.0
2014-Nov-21 06:32N 35°31' E 139°46'4 4.5
2014-Nov-21 05:33N 35°28' E 139°42'9 9.3
2014-Nov-21 04:33N 35°32' E 139°53'3 2.6
2014-Nov-21 03:25N 35°34' E 139°55'5 0.8
2014-Nov-20 21:28N 35°38' E 139°58'4 0.6
2014-Nov-20 15:21N 35°36' E 139°55'7 8.4
2014-Nov-20 14:33N 35°30' E 139°60'2 0.2
2014-Nov-20 06:28N 35°29' E 140°01'9 2.4
2014-Nov-20 02:33N 35°38' E 139°59'4 0.4
2014-Nov-19 15:11N 35°36' E 139°54'0 0.0
2014-Nov-19 14:29N 35°36' E 139°54'0 0.1
2014-Nov-19 13:29N 35°36' E 139°54'0 0.0
2014-Nov-19 12:23N 35°36' E 139°54'0 0.1
2014-Nov-19 11:33N 35°36' E 139°54'8 8.5
2014-Nov-19 10:33N 35°31' E 139°46'1 0.5
2014-Nov-19 09:29N 35°31' E 139°46'0 0.0
2014-Nov-19 08:32N 35°31' E 139°46'0 0.0
2014-Nov-19 06:32N 35°31' E 139°46'0 0.0
2014-Nov-19 05:26N 35°31' E 139°46'1 0.7
2014-Nov-19 04:33N 35°31' E 139°46'3 2.9
2014-Nov-19 03:33N 35°28' E 139°47'14 2.3
2014-Nov-18 21:27N 35°38' E 139°58'4 0.3
2014-Nov-18 09:05N 35°35' E 139°55'5 8.9
2014-Nov-18 08:31N 35°31' E 139°59'3 0.5
2014-Nov-18 03:09N 35°29' E 140°01'810.4
2014-Nov-18 02:22N 35°37' E 139°59'1 0.2
2014-Nov-17 21:27N 35°38' E 139°58'4 0.5
2014-Nov-17 13:33N 35°35' E 139°55'0 0.0
2014-Nov-17 08:30N 35°35' E 139°55'0 0.0
2014-Nov-17 07:18N 35°35' E 139°55'7 8.4
2014-Nov-17 06:32N 35°30' E 140°01'  

Dump ship's entire track history